createdAt,value
2023-04-23T00:00:46.711Z,9.95
2023-04-23T00:03:15.490Z,9.45
2023-04-23T00:05:47.015Z,9.00
2023-04-23T00:12:46.126Z,7.95
2023-04-23T00:15:28.546Z,6.60
2023-04-23T00:18:04.970Z,6.25
2023-04-23T00:20:35.636Z,6.47
2023-04-23T00:23:02.985Z,6.15
2023-04-23T00:25:30.325Z,5.03
2023-04-23T00:27:57.692Z,5.13
2023-04-23T00:30:25.096Z,4.75
2023-04-23T00:32:52.522Z,4.75
2023-04-23T00:35:21.274Z,4.18
2023-04-23T00:37:48.810Z,4.10
2023-04-23T00:40:16.148Z,4.07
2023-04-23T00:42:45.186Z,4.38
2023-04-23T00:45:12.641Z,4.03
2023-04-23T00:47:41.102Z,3.95
2023-04-23T00:50:08.788Z,3.70
2023-04-23T00:52:36.125Z,3.33
2023-04-23T00:55:03.597Z,3.47
2023-04-23T00:57:31.003Z,4.18
2023-04-23T00:59:59.415Z,2.85
2023-04-23T01:02:28.599Z,2.72
2023-04-23T01:04:56.431Z,2.28
2023-04-23T01:07:24.363Z,2.58
2023-04-23T01:09:52.045Z,2.67
2023-04-23T01:12:19.367Z,3.10
2023-04-23T01:14:46.979Z,2.97
2023-04-23T01:17:14.547Z,3.20
2023-04-23T01:19:42.225Z,3.42
2023-04-23T01:22:16.910Z,2.60
2023-04-23T01:24:44.315Z,3.00
2023-04-23T01:27:12.178Z,3.00
2023-04-23T01:29:40.486Z,3.42
2023-04-23T01:32:08.649Z,3.25
2023-04-23T01:34:36.564Z,3.22
2023-04-23T01:37:04.505Z,3.97
2023-04-23T01:39:32.298Z,3.80
2023-04-23T01:42:01.639Z,3.47
2023-04-23T01:44:28.928Z,3.80
2023-04-23T01:46:57.534Z,3.30
2023-04-23T01:49:25.032Z,4.00
2023-04-23T01:51:52.840Z,4.95
2023-04-23T01:54:20.293Z,3.40
2023-04-23T01:56:48.041Z,4.03
2023-04-23T01:59:15.615Z,3.95
2023-04-23T02:01:47.299Z,3.75
2023-04-23T02:04:16.232Z,3.22
2023-04-23T02:06:48.054Z,3.50
2023-04-23T02:09:15.685Z,3.65
2023-04-23T02:11:43.118Z,3.33
2023-04-23T02:14:11.601Z,3.00
2023-04-23T02:16:40.008Z,3.30
2023-04-23T02:19:07.374Z,3.05
2023-04-23T02:21:34.716Z,4.07
2023-04-23T02:24:02.095Z,3.53
2023-04-23T02:26:29.836Z,2.58
2023-04-23T02:28:57.968Z,2.53
2023-04-23T02:31:25.603Z,2.80
2023-04-23T02:33:52.955Z,2.40
2023-04-23T02:36:20.618Z,2.80
2023-04-23T02:38:49.359Z,2.95
2023-04-23T02:41:16.949Z,2.65
2023-04-23T02:43:44.244Z,2.30
2023-04-23T02:46:11.520Z,3.47
2023-04-23T02:48:42.386Z,3.05
2023-04-23T02:51:12.154Z,2.58
2023-04-23T02:53:39.696Z,3.97
2023-04-23T02:56:08.625Z,3.53
2023-04-23T02:58:36.220Z,3.20
2023-04-23T03:01:04.291Z,3.78
2023-04-23T03:03:33.084Z,3.78
2023-04-23T03:06:01.689Z,3.58
2023-04-23T03:08:29.261Z,4.70
2023-04-23T03:10:56.666Z,4.10
2023-04-23T03:13:24.827Z,3.10
2023-04-23T03:15:53.088Z,3.53
2023-04-23T03:18:20.728Z,3.90
2023-04-23T03:20:49.127Z,3.70
2023-04-23T03:23:16.493Z,3.75
2023-04-23T03:25:45.334Z,3.10
2023-04-23T03:28:12.647Z,3.67
2023-04-23T03:30:40.283Z,3.72
2023-04-23T03:33:07.691Z,3.03
2023-04-23T03:35:34.984Z,2.83
2023-04-23T03:38:02.411Z,3.13
2023-04-23T03:40:29.809Z,3.67
2023-04-23T03:42:58.090Z,2.85
2023-04-23T03:45:26.137Z,3.47
2023-04-23T03:47:53.523Z,3.80
2023-04-23T03:50:20.950Z,2.42
2023-04-23T03:52:48.684Z,2.42
2023-04-23T03:55:16.117Z,3.10
2023-04-23T03:57:43.410Z,3.33
2023-04-23T04:00:11.962Z,3.60
2023-04-23T04:02:40.049Z,3.28
2023-04-23T04:05:09.509Z,2.72
2023-04-23T04:07:37.392Z,3.10
2023-04-23T04:10:06.524Z,2.80
2023-04-23T04:12:34.016Z,3.28
2023-04-23T04:15:03.058Z,2.90
2023-04-23T04:17:30.375Z,3.50
2023-04-23T04:19:57.752Z,2.70
2023-04-23T04:22:25.077Z,2.72
2023-04-23T04:24:54.215Z,3.17
2023-04-23T04:27:21.912Z,3.45
2023-04-23T04:29:49.584Z,4.60
2023-04-23T04:32:16.936Z,4.43
2023-04-23T04:34:44.414Z,3.90
2023-04-23T04:37:11.777Z,3.63
2023-04-23T04:39:39.121Z,3.15
2023-04-23T04:42:07.422Z,3.55
2023-04-23T04:44:37.631Z,3.40
2023-04-23T04:47:08.253Z,3.85
2023-04-23T04:49:36.220Z,3.13
2023-04-23T04:52:03.516Z,3.25
2023-04-23T04:54:30.833Z,3.80
2023-04-23T04:56:58.184Z,3.15
2023-04-23T04:59:25.536Z,3.92
2023-04-23T05:01:52.931Z,3.83
2023-04-23T05:04:20.687Z,4.25
2023-04-23T05:06:48.004Z,3.30
2023-04-23T05:09:15.486Z,4.10
2023-04-23T05:11:43.181Z,3.13
2023-04-23T05:14:10.939Z,4.00
2023-04-23T05:16:38.301Z,3.70
2023-04-23T05:19:06.480Z,4.10
2023-04-23T05:21:34.107Z,3.85
2023-04-23T05:24:01.393Z,4.63
2023-04-23T05:26:28.682Z,4.25
2023-04-23T05:28:55.981Z,4.28
2023-04-23T05:31:23.340Z,4.38
2023-04-23T05:33:51.041Z,3.45
2023-04-23T05:36:18.706Z,4.00
2023-04-23T05:38:46.632Z,4.53
2023-04-23T05:41:13.983Z,3.88
2023-04-23T05:43:41.398Z,3.55
2023-04-23T05:46:08.744Z,3.80
2023-04-23T05:48:36.041Z,3.67
2023-04-23T05:51:03.498Z,3.67
2023-04-23T05:53:30.780Z,3.67
2023-04-23T05:55:58.138Z,5.30
2023-04-23T05:58:26.235Z,3.80
2023-04-23T06:00:53.919Z,4.03
2023-04-23T06:03:21.520Z,3.60
2023-04-23T06:05:49.137Z,4.35
2023-04-23T06:08:16.455Z,4.22
2023-04-23T06:10:44.096Z,3.50
2023-04-23T06:13:11.478Z,3.85
2023-04-23T06:15:38.917Z,3.80
2023-04-23T06:18:06.452Z,3.67
2023-04-23T06:20:33.854Z,4.10
2023-04-23T06:23:02.908Z,2.95
2023-04-23T06:25:30.215Z,3.60
2023-04-23T06:27:58.256Z,3.20
2023-04-23T06:30:25.551Z,3.78
2023-04-23T06:32:52.996Z,3.50
2023-04-23T06:35:20.689Z,4.25
2023-04-23T06:37:47.998Z,3.70
2023-04-23T06:40:15.803Z,3.47
2023-04-23T06:42:43.346Z,3.05
2023-04-23T06:45:11.433Z,2.72
2023-04-23T06:47:38.689Z,4.00
2023-04-23T06:50:07.351Z,3.53
2023-04-23T06:52:34.690Z,3.10
2023-04-23T06:55:02.163Z,3.28
2023-04-23T06:57:29.560Z,3.35
2023-04-23T06:59:56.801Z,2.75
2023-04-23T07:02:24.225Z,2.45
2023-04-23T07:04:51.614Z,3.63
2023-04-23T07:07:18.984Z,2.90
2023-04-23T07:09:46.556Z,3.15
2023-04-23T07:12:13.957Z,3.47
2023-04-23T07:14:41.337Z,2.88
2023-04-23T07:17:08.988Z,2.90
2023-04-23T07:19:36.641Z,3.45
2023-04-23T07:22:04.028Z,2.80
2023-04-23T07:24:31.383Z,3.53
2023-04-23T07:26:59.495Z,3.20
2023-04-23T07:29:28.182Z,2.80
2023-04-23T07:31:56.549Z,3.05
2023-04-23T07:34:23.907Z,3.22
2023-04-23T07:36:52.259Z,3.10
2023-04-23T07:39:19.590Z,2.92
2023-04-23T07:41:47.334Z,3.45
2023-04-23T07:44:14.678Z,3.25
2023-04-23T07:46:42.126Z,4.18
2023-04-23T07:49:09.591Z,2.75
2023-04-23T07:51:36.988Z,3.45
2023-04-23T07:54:04.652Z,3.40
2023-04-23T07:56:32.719Z,3.42
2023-04-23T07:59:00.478Z,3.03
2023-04-23T08:01:28.156Z,2.45
2023-04-23T08:04:00.750Z,3.72
2023-04-23T08:06:30.095Z,3.53
2023-04-23T08:08:57.832Z,3.58
2023-04-23T08:11:25.320Z,2.53
2023-04-23T08:13:52.740Z,2.50
2023-04-23T08:16:20.045Z,3.22
2023-04-23T08:19:03.633Z,2.42
2023-04-23T08:21:32.757Z,2.83
2023-04-23T08:24:00.262Z,3.03
2023-04-23T08:26:27.695Z,2.47
2023-04-23T08:28:54.982Z,2.25
2023-04-23T08:31:27.093Z,3.92
2023-04-23T08:33:55.233Z,2.83
2023-04-23T08:36:22.612Z,2.58
2023-04-23T08:38:49.981Z,3.85
2023-04-23T08:41:19.217Z,3.08
2023-04-23T08:44:01.436Z,3.00
2023-04-23T08:46:32.446Z,3.38
2023-04-23T08:49:02.529Z,4.05
2023-04-23T08:51:31.049Z,3.47
2023-04-23T08:54:04.388Z,3.40
2023-04-23T08:56:33.164Z,4.43
2023-04-23T08:59:03.564Z,3.40
2023-04-23T09:01:31.614Z,3.83
2023-04-23T09:04:02.006Z,3.45
2023-04-23T09:06:32.125Z,3.13
2023-04-23T09:09:00.165Z,3.25
2023-04-23T09:11:28.964Z,3.95
2023-04-23T09:13:57.341Z,3.17
2023-04-23T09:16:24.706Z,3.17
2023-04-23T09:18:52.590Z,5.13
2023-04-23T09:21:21.381Z,2.90
2023-04-23T09:23:52.231Z,3.35
2023-04-23T09:26:23.004Z,3.92
2023-04-23T09:28:51.416Z,3.40
2023-04-23T09:31:24.311Z,3.42
2023-04-23T09:33:53.723Z,4.60
2023-04-23T09:36:24.501Z,3.10
2023-04-23T09:38:57.283Z,4.10
2023-04-23T09:41:26.965Z,3.78
2023-04-23T09:43:56.421Z,3.75
2023-04-23T09:46:53.359Z,2.97
2023-04-23T09:49:20.928Z,4.07
2023-04-23T09:51:49.936Z,4.53
2023-04-23T09:54:23.343Z,3.75
2023-04-23T09:56:58.908Z,3.35
2023-04-23T10:02:06.619Z,2.60
2023-04-23T10:04:34.902Z,2.30
2023-04-23T10:07:17.875Z,2.80
2023-04-23T10:09:46.556Z,2.25
2023-04-23T10:14:46.590Z,3.33
2023-04-23T10:17:14.218Z,3.05
2023-04-23T10:19:44.059Z,2.85
2023-04-23T10:24:49.211Z,2.65
2023-04-23T10:27:30.843Z,2.67
2023-04-23T10:30:07.916Z,3.50
2023-04-23T10:32:35.723Z,4.47
2023-04-23T10:35:03.226Z,4.20
2023-04-23T10:37:31.358Z,4.57
2023-04-23T10:40:09.439Z,4.25
2023-04-23T10:42:37.429Z,4.95
2023-04-23T10:45:22.587Z,4.63
2023-04-23T10:47:57.411Z,3.90
2023-04-23T10:50:27.466Z,4.35
2023-04-23T10:52:57.215Z,4.82
2023-04-23T10:55:35.917Z,5.70
2023-04-23T10:58:08.193Z,4.28
2023-04-23T11:00:46.786Z,4.50
2023-04-23T11:03:42.490Z,4.35
2023-04-23T11:08:56.666Z,4.20
2023-04-23T11:11:41.280Z,4.63
2023-04-23T11:14:17.004Z,9.43
2023-04-23T11:16:45.700Z,5.90
2023-04-23T11:19:13.474Z,6.10
2023-04-23T11:22:01.062Z,6.40
2023-04-23T11:24:34.426Z,7.97
2023-04-23T11:27:02.831Z,5.40
2023-04-23T11:29:30.640Z,6.53
2023-04-23T11:32:03.152Z,5.20
2023-04-23T11:34:33.187Z,6.03
2023-04-23T11:37:01.629Z,6.65
2023-04-23T11:39:29.007Z,6.10
2023-04-23T11:41:57.836Z,6.40
2023-04-23T11:44:25.567Z,6.30
2023-04-23T11:46:52.929Z,7.28
2023-04-23T11:49:22.062Z,5.10
2023-04-23T11:51:49.582Z,6.30
2023-04-23T11:54:17.022Z,5.72
2023-04-23T11:56:44.929Z,5.55
2023-04-23T11:59:12.402Z,5.97
2023-04-23T12:01:44.483Z,5.35
2023-04-23T12:04:21.132Z,4.93
2023-04-23T12:06:50.046Z,3.53
2023-04-23T12:09:21.562Z,5.85
2023-04-23T12:11:52.748Z,5.70
2023-04-23T12:14:28.317Z,4.03
2023-04-23T12:16:56.621Z,2.13
2023-04-23T12:19:29.757Z,4.10
2023-04-23T12:22:02.767Z,3.45
2023-04-23T12:24:32.133Z,4.03
2023-04-23T12:27:02.996Z,3.70
2023-04-23T12:29:31.478Z,3.88
2023-04-23T12:32:00.352Z,2.92
2023-04-23T12:34:27.734Z,2.75
2023-04-23T12:36:58.610Z,3.28
2023-04-23T12:39:26.168Z,2.55
2023-04-23T12:42:05.582Z,2.90
2023-04-23T12:44:36.929Z,3.50
2023-04-23T12:47:07.675Z,2.45
2023-04-23T12:49:38.695Z,2.47
2023-04-23T12:52:07.616Z,2.30
2023-04-23T12:54:40.040Z,2.88
2023-04-23T12:57:10.018Z,2.40
2023-04-23T12:59:37.422Z,3.22
2023-04-23T13:02:06.758Z,2.90
2023-04-23T13:04:35.715Z,3.25
2023-04-23T13:07:03.709Z,3.75
2023-04-23T13:09:31.386Z,3.53
2023-04-23T13:12:00.812Z,4.43
2023-04-23T13:14:28.615Z,4.10
2023-04-23T13:16:58.039Z,4.82
2023-04-23T13:19:25.866Z,4.72
2023-04-23T13:21:56.403Z,4.85
2023-04-23T13:24:23.932Z,4.60
2023-04-23T13:26:51.266Z,3.88
2023-04-23T13:29:18.588Z,5.10
2023-04-23T13:31:46.108Z,5.10
2023-04-23T13:34:21.649Z,4.88
2023-04-23T13:36:51.530Z,5.50
2023-04-23T13:39:20.273Z,4.93
2023-04-23T13:41:59.263Z,5.30
2023-04-23T13:44:31.956Z,4.63
2023-04-23T13:46:59.440Z,4.97
2023-04-23T13:49:28.021Z,4.40
2023-04-23T13:51:59.475Z,3.85
2023-04-23T13:54:29.694Z,4.43
2023-04-23T13:56:59.156Z,4.43
2023-04-23T13:59:26.507Z,4.72
2023-04-23T14:01:53.905Z,5.28
2023-04-23T14:04:24.392Z,4.88
2023-04-23T14:06:51.895Z,6.10
2023-04-23T14:09:19.425Z,5.95
2023-04-23T14:11:46.756Z,6.85
2023-04-23T14:14:14.124Z,6.75
2023-04-23T14:16:41.612Z,6.72
2023-04-23T14:19:09.146Z,7.47
2023-04-23T14:21:39.661Z,7.68
2023-04-23T14:24:24.284Z,6.00
2023-04-23T14:26:51.683Z,5.47
2023-04-23T14:29:30.397Z,8.55
2023-04-23T14:31:57.810Z,5.50
2023-04-23T14:34:25.170Z,5.10
2023-04-23T14:36:53.565Z,4.68
2023-04-23T14:39:24.432Z,3.95
2023-04-23T14:41:56.615Z,3.50
2023-04-23T14:44:24.978Z,3.50
2023-04-23T14:46:53.164Z,2.97
2023-04-23T14:49:21.378Z,3.10
2023-04-23T14:51:55.778Z,3.35
2023-04-23T14:54:23.538Z,3.28
2023-04-23T14:56:51.663Z,3.40
2023-04-23T14:59:19.034Z,3.38
2023-04-23T15:01:46.614Z,3.67
2023-04-23T15:04:15.919Z,3.97
2023-04-23T15:06:43.247Z,5.63
2023-04-23T15:09:11.679Z,6.57
2023-04-23T15:11:45.161Z,7.78
2023-04-23T15:14:33.139Z,6.22
2023-04-23T15:17:01.397Z,5.55
2023-04-23T15:19:31.180Z,5.22
2023-04-23T15:21:58.560Z,6.10
2023-04-23T15:24:25.881Z,6.57
2023-04-23T15:26:54.666Z,6.30
2023-04-23T15:29:24.439Z,6.25
2023-04-23T15:31:58.668Z,6.00
2023-04-23T15:34:26.075Z,5.75
2023-04-23T15:36:53.386Z,6.65
2023-04-23T15:39:21.433Z,6.80
2023-04-23T15:41:48.951Z,6.60
2023-04-23T15:44:17.415Z,5.80
2023-04-23T15:46:44.834Z,7.65
2023-04-23T15:49:12.185Z,7.07
2023-04-23T15:51:39.524Z,7.25
2023-04-23T15:54:08.800Z,8.48
2023-04-23T15:56:37.076Z,7.75
2023-04-23T15:59:04.890Z,8.77
2023-04-23T16:01:32.325Z,8.50
2023-04-23T16:04:09.355Z,8.13
2023-04-23T16:06:37.588Z,8.48
2023-04-23T16:09:08.610Z,7.80
2023-04-23T16:11:37.795Z,7.47
2023-04-23T16:14:06.624Z,6.93
2023-04-23T16:16:34.037Z,7.10
2023-04-23T16:19:03.019Z,8.07
2023-04-23T16:21:32.196Z,7.78
2023-04-23T16:24:02.045Z,7.03
2023-04-23T16:26:29.748Z,8.07
2023-04-23T16:29:16.640Z,7.82
2023-04-23T16:31:44.707Z,6.47
2023-04-23T16:34:12.210Z,8.43
2023-04-23T16:36:39.673Z,7.80
2023-04-23T16:39:07.054Z,7.93
2023-04-23T16:41:34.424Z,7.53
2023-04-23T16:44:01.819Z,7.82
2023-04-23T16:46:31.184Z,8.50
2023-04-23T16:48:59.230Z,7.20
2023-04-23T16:51:27.280Z,8.68
2023-04-23T16:53:54.588Z,8.00
2023-04-23T16:56:22.088Z,7.50
2023-04-23T16:58:49.933Z,7.25
2023-04-23T17:01:18.175Z,7.20
2023-04-23T17:03:46.141Z,7.90
2023-04-23T17:06:30.273Z,8.85
2023-04-23T17:09:00.369Z,9.02
2023-04-23T17:11:29.433Z,7.45
2023-04-23T17:13:57.988Z,8.25
2023-04-23T17:16:27.085Z,8.05
2023-04-23T17:18:55.154Z,7.80
2023-04-23T17:21:23.542Z,7.75
2023-04-23T17:23:51.256Z,9.30
2023-04-23T17:26:19.482Z,9.77
2023-04-23T17:28:46.968Z,8.50
2023-04-23T17:31:14.493Z,8.55
2023-04-23T17:33:44.916Z,8.00
2023-04-23T17:36:12.282Z,9.65
2023-04-23T17:38:39.622Z,8.55
2023-04-23T17:41:07.026Z,9.25
2023-04-23T17:43:37.017Z,8.27
2023-04-23T17:46:05.292Z,8.60
2023-04-23T17:48:32.676Z,7.85
2023-04-23T17:51:00.301Z,8.98
2023-04-23T17:53:27.586Z,8.98
2023-04-23T17:55:59.712Z,10.27
2023-04-23T17:58:27.022Z,9.70
2023-04-23T18:00:54.704Z,9.93
2023-04-23T18:03:23.640Z,12.45
2023-04-23T18:05:51.280Z,11.52
2023-04-23T18:08:20.897Z,13.40
2023-04-23T18:10:48.416Z,13.68
2023-04-23T18:13:15.959Z,13.55
2023-04-23T18:15:43.494Z,12.13
2023-04-23T18:18:10.975Z,11.35
2023-04-23T18:20:39.211Z,12.07
2023-04-23T18:23:06.885Z,9.05
2023-04-23T18:25:34.229Z,5.53
2023-04-23T18:28:02.169Z,5.38
2023-04-23T18:30:30.007Z,5.97
2023-04-23T18:33:08.877Z,5.35
2023-04-23T18:35:36.324Z,4.70
2023-04-23T18:38:10.854Z,4.60
2023-04-23T18:40:38.414Z,4.45
2023-04-23T18:43:05.822Z,4.82
2023-04-23T18:45:33.468Z,5.07
2023-04-23T18:48:37.084Z,4.30
2023-04-23T18:51:18.997Z,5.40
2023-04-23T18:53:46.873Z,5.68
2023-04-23T18:56:15.031Z,5.78
2023-04-23T18:58:42.380Z,5.65
2023-04-23T19:01:09.810Z,7.35
2023-04-23T19:03:37.763Z,6.55
2023-04-23T19:06:07.847Z,7.18
2023-04-23T19:08:36.134Z,7.00
2023-04-23T19:11:03.842Z,7.43
2023-04-23T19:13:31.268Z,6.40
2023-04-23T19:15:59.320Z,5.72
2023-04-23T19:18:26.728Z,5.72
2023-04-23T19:20:54.103Z,5.70
2023-04-23T19:23:21.455Z,5.40
2023-04-23T19:25:48.821Z,6.30
2023-04-23T19:28:16.139Z,6.22
2023-04-23T19:30:43.907Z,6.55
2023-04-23T19:33:12.056Z,7.35
2023-04-23T19:35:40.437Z,7.88
2023-04-23T19:38:14.065Z,8.30
2023-04-23T19:40:41.489Z,7.82
2023-04-23T19:43:10.850Z,10.15
2023-04-23T19:45:43.845Z,9.60
2023-04-23T19:48:27.140Z,9.68
2023-04-23T19:51:35.117Z,10.27
2023-04-23T19:56:59.459Z,12.82
2023-04-23T19:59:27.369Z,10.02
2023-04-23T20:01:56.900Z,12.20
2023-04-23T20:04:25.676Z,14.15
2023-04-23T20:06:53.435Z,14.45
2023-04-23T20:09:21.895Z,28.70
2023-04-23T20:11:49.737Z,18.13
2023-04-23T20:14:18.091Z,16.23
2023-04-23T20:16:45.609Z,16.88
2023-04-23T20:19:14.378Z,16.58
2023-04-23T20:21:42.882Z,18.13
2023-04-23T20:24:11.327Z,16.48
2023-04-23T20:26:40.328Z,17.67
2023-04-23T20:29:09.485Z,19.08
2023-04-23T20:31:39.512Z,19.63
2023-04-23T20:34:07.027Z,21.00
2023-04-23T20:36:34.374Z,24.50
2023-04-23T20:39:05.517Z,23.15
2023-04-23T20:41:37.034Z,20.73
2023-04-23T20:44:09.110Z,20.02
2023-04-23T20:46:36.976Z,20.70
2023-04-23T20:49:04.668Z,19.55
2023-04-23T20:51:35.535Z,20.83
2023-04-23T20:54:03.227Z,21.13
2023-04-23T20:56:31.482Z,21.73
2023-04-23T20:59:00.740Z,25.17
2023-04-23T21:01:28.151Z,23.67
2023-04-23T21:03:55.651Z,23.23
2023-04-23T21:06:23.076Z,24.45
2023-04-23T21:08:50.513Z,23.15
2023-04-23T21:11:19.889Z,23.42
2023-04-23T21:13:47.270Z,24.42
2023-04-23T21:16:15.218Z,26.00
2023-04-23T21:18:43.900Z,26.95
2023-04-23T21:21:11.283Z,26.55
2023-04-23T21:23:38.652Z,24.67
2023-04-23T21:26:06.670Z,26.52
2023-04-23T21:28:34.051Z,28.85
2023-04-23T21:31:14.683Z,27.10
2023-04-23T21:33:42.217Z,25.33
2023-04-23T21:36:09.530Z,25.30
2023-04-23T21:38:36.814Z,25.65
2023-04-23T21:41:04.502Z,26.48
2023-04-23T21:43:35.485Z,25.55
2023-04-23T21:46:02.948Z,27.15
2023-04-23T21:48:32.054Z,26.42
2023-04-23T21:50:59.606Z,28.05
2023-04-23T21:53:27.080Z,27.75
2023-04-23T21:55:54.388Z,26.00
2023-04-23T21:58:22.192Z,25.45
2023-04-23T22:00:49.566Z,24.48
2023-04-23T22:03:25.556Z,24.88
2023-04-23T22:06:02.274Z,23.98
2023-04-23T22:08:31.246Z,23.50
2023-04-23T22:10:58.663Z,26.02
2023-04-23T22:13:26.236Z,25.55
2023-04-23T22:15:53.773Z,24.42
2023-04-23T22:18:21.222Z,23.17
2023-04-23T22:20:49.436Z,23.25
2023-04-23T22:23:17.168Z,22.38
2023-04-23T22:25:44.854Z,22.70
2023-04-23T22:28:14.822Z,21.15
2023-04-23T22:30:42.605Z,20.77
2023-04-23T22:33:10.206Z,21.98
2023-04-23T22:35:37.574Z,21.20
2023-04-23T22:38:05.898Z,21.88
2023-04-23T22:40:33.212Z,21.55
2023-04-23T22:43:00.650Z,20.83
2023-04-23T22:45:28.099Z,21.60
2023-04-23T22:47:55.570Z,21.17
2023-04-23T22:50:22.874Z,19.48
2023-04-23T22:52:50.186Z,19.70
2023-04-23T22:55:18.038Z,19.48
2023-04-23T22:57:45.481Z,19.10
2023-04-23T23:00:13.471Z,19.02
2023-04-23T23:02:41.102Z,18.63
2023-04-23T23:05:09.827Z,17.70
2023-04-23T23:07:37.263Z,17.60
2023-04-23T23:10:08.807Z,17.52
2023-04-23T23:12:37.267Z,18.85
2023-04-23T23:15:06.016Z,18.17
2023-04-23T23:17:33.954Z,19.02
2023-04-23T23:20:01.345Z,18.67
2023-04-23T23:22:28.737Z,18.10
2023-04-23T23:24:56.081Z,18.75
2023-04-23T23:27:23.459Z,20.27
2023-04-23T23:29:50.805Z,21.20
2023-04-23T23:32:18.339Z,19.65
2023-04-23T23:34:46.338Z,19.52
2023-04-23T23:37:13.715Z,21.52
2023-04-23T23:39:41.485Z,20.85
2023-04-23T23:42:09.012Z,18.90
2023-04-23T23:44:37.718Z,19.75
2023-04-23T23:47:05.234Z,19.30
2023-04-23T23:49:34.732Z,21.30
2023-04-23T23:52:04.252Z,21.08
2023-04-23T23:54:31.678Z,20.92
2023-04-23T23:56:59.895Z,22.15
2023-04-23T23:59:27.739Z,22.80
